Time;durP1;ratioP1;P1;durP2;ratioP2;P2;SDS_P1;SDS_P2;PMS_P1;PMS_P2;Temp;Humidity;BMP_temperature;BMP_pressure;BME280_temperature;BME280_humidity;BME280_pressure;Samples;Min_cycle;Max_cycle;Signal;HPM_P1;HPM_P2
2022/03/26 00:02:18;;;;;;;44.17;17.98;;;;;;;;;;4975876;28;20038;-65
2022/03/26 00:04:44;;;;;;;38.00;17.92;;;;;;;;;;4975349;28;20031;-64
2022/03/26 00:07:09;;;;;;;44.28;18.83;;;;;;;;;;4975280;28;20042;-64
2022/03/26 00:09:35;;;;;;;39.20;17.73;;;;;;;;;;4978595;28;20373;-66
2022/03/26 00:12:00;;;;;;;44.45;17.35;;;;;;;;;;4975627;28;20467;-64
2022/03/26 00:14:26;;;;;;;38.88;18.27;;;;;;;;;;4976037;28;20027;-65
2022/03/26 00:16:51;;;;;;;37.72;17.88;;;;;;;;;;4975243;28;20034;-66
2022/03/26 00:19:16;;;;;;;39.97;18.85;;;;;;;;;;4975661;28;20037;-65
2022/03/26 00:21:42;;;;;;;39.05;18.38;;;;;;;;;;4975865;28;20027;-65
2022/03/26 00:24:08;;;;;;;42.90;19.17;;;;;;;;;;4973916;28;20058;-65
2022/03/26 00:26:33;;;;;;;39.40;19.35;;;;;;;;;;4975529;28;20030;-65
2022/03/26 00:29:08;;;;;;;42.78;19.38;;;;;;;;;;4974701;28;20038;-65
2022/03/26 00:31:33;;;;;;;40.30;18.80;;;;;;;;;;4974527;28;20062;-65
2022/03/26 00:34:00;;;;;;;42.83;19.58;;;;;;;;;;4975002;28;20077;-65
2022/03/26 00:36:26;;;;;;;45.15;19.30;;;;;;;;;;4975581;28;20041;-65
2022/03/26 00:38:51;;;;;;;38.58;17.98;;;;;;;;;;4974845;28;20035;-67
2022/03/26 00:41:16;;;;;;;38.33;18.75;;;;;;;;;;4975526;28;20123;-63
2022/03/26 00:43:42;;;;;;;35.65;18.08;;;;;;;;;;4974388;28;20464;-64
2022/03/26 00:46:07;;;;;;;38.55;18.95;;;;;;;;;;4975578;28;20030;-64
2022/03/26 00:48:33;;;;;;;45.13;19.48;;;;;;;;;;4975775;28;20054;-64
2022/03/26 00:50:59;;;;;;;36.38;17.73;;;;;;;;;;4974781;28;20085;-64
2022/03/26 00:53:26;;;;;;;37.17;19.58;;;;;;;;;;4974860;28;20035;-64
2022/03/26 00:55:52;;;;;;;39.20;18.55;;;;;;;;;;4974964;28;20035;-66
2022/03/26 00:58:17;;;;;;;41.88;19.48;;;;;;;;;;4975149;28;20037;-64
2022/03/26 01:00:43;;;;;;;37.38;19.15;;;;;;;;;;4975077;28;20027;-64
2022/03/26 01:03:09;;;;;;;41.08;19.00;;;;;;;;;;4974401;28;20041;-65
2022/03/26 01:05:35;;;;;;;37.92;18.80;;;;;;;;;;4973343;28;20353;-66
2022/03/26 01:08:00;;;;;;;39.42;19.35;;;;;;;;;;4974208;28;20037;-64
2022/03/26 01:10:27;;;;;;;38.67;18.85;;;;;;;;;;4974944;28;20027;-64
2022/03/26 01:12:53;;;;;;;38.63;19.10;;;;;;;;;;4974531;28;20027;-64
2022/03/26 01:15:19;;;;;;;38.75;19.90;;;;;;;;;;4974709;28;20097;-64
2022/03/26 01:17:45;;;;;;;37.03;18.02;;;;;;;;;;4974661;28;20039;-64
2022/03/26 01:20:11;;;;;;;39.28;18.17;;;;;;;;;;4973889;28;20038;-64
2022/03/26 01:22:36;;;;;;;37.95;18.27;;;;;;;;;;4974758;28;20113;-64
2022/03/26 01:25:03;;;;;;;40.15;18.83;;;;;;;;;;4973770;28;20031;-66
2022/03/26 01:27:28;;;;;;;34.70;18.40;;;;;;;;;;4974516;28;20081;-66
2022/03/26 01:29:54;;;;;;;38.92;17.67;;;;;;;;;;4974528;28;20468;-67
2022/03/26 01:32:19;;;;;;;42.42;18.15;;;;;;;;;;4974590;28;20118;-65
2022/03/26 01:34:46;;;;;;;36.15;17.80;;;;;;;;;;4973213;28;20026;-65
2022/03/26 01:37:12;;;;;;;34.40;17.25;;;;;;;;;;4974357;28;20031;-65
2022/03/26 01:39:38;;;;;;;39.30;17.20;;;;;;;;;;4974754;28;20034;-65
2022/03/26 01:42:05;;;;;;;36.35;17.13;;;;;;;;;;4973845;28;20037;-65
2022/03/26 01:44:31;;;;;;;38.15;17.48;;;;;;;;;;4974339;28;20424;-64
2022/03/26 01:46:57;;;;;;;36.35;16.25;;;;;;;;;;4973450;28;20034;-65
2022/03/26 01:49:22;;;;;;;35.33;16.58;;;;;;;;;;4974107;28;20126;-64
2022/03/26 01:51:48;;;;;;;33.30;16.05;;;;;;;;;;4974028;28;20456;-64
2022/03/26 01:54:16;;;;;;;35.78;17.48;;;;;;;;;;4973175;28;20031;-64
2022/03/26 01:56:42;;;;;;;38.72;16.65;;;;;;;;;;4973656;28;20399;-64
2022/03/26 01:59:08;;;;;;;34.38;16.10;;;;;;;;;;4973522;28;20127;-64
2022/03/26 02:01:34;;;;;;;31.60;16.05;;;;;;;;;;4973657;28;20039;-64
2022/03/26 02:04:01;;;;;;;36.25;16.52;;;;;;;;;;4972145;28;20031;-64
2022/03/26 02:06:31;;;;;;;32.20;15.38;;;;;;;;;;4973568;28;20121;-65
2022/03/26 02:08:57;;;;;;;34.85;15.25;;;;;;;;;;4973262;28;20023;-65
2022/03/26 02:11:23;;;;;;;33.47;15.25;;;;;;;;;;4973666;28;20429;-64
2022/03/26 02:13:49;;;;;;;28.85;15.45;;;;;;;;;;4973774;28;20083;-64
2022/03/26 02:16:15;;;;;;;30.33;15.18;;;;;;;;;;4972845;28;20035;-64
2022/03/26 02:18:41;;;;;;;32.97;16.13;;;;;;;;;;4972857;28;20038;-64
2022/03/26 02:21:06;;;;;;;35.53;14.90;;;;;;;;;;4972771;28;20472;-64
2022/03/26 02:23:31;;;;;;;29.85;14.88;;;;;;;;;;4973915;28;20046;-64
2022/03/26 02:25:57;;;;;;;34.00;14.95;;;;;;;;;;4972198;28;20439;-66
2022/03/26 02:28:22;;;;;;;33.20;15.43;;;;;;;;;;4971624;28;20128;-64
2022/03/26 02:31:20;;;;;;;35.28;15.40;;;;;;;;;;4973701;28;20142;-65
2022/03/26 02:33:46;;;;;;;39.47;15.13;;;;;;;;;;4973089;28;20130;-65
2022/03/26 02:36:11;;;;;;;32.63;14.80;;;;;;;;;;4972609;28;20507;-65
2022/03/26 02:38:37;;;;;;;34.78;15.73;;;;;;;;;;4973494;28;20033;-65
2022/03/26 02:41:04;;;;;;;31.98;14.13;;;;;;;;;;4971649;28;20142;-65
2022/03/26 02:43:30;;;;;;;29.00;14.68;;;;;;;;;;4973483;28;20027;-65
2022/03/26 02:45:55;;;;;;;29.80;14.50;;;;;;;;;;4972081;28;20027;-65
2022/03/26 02:48:21;;;;;;;30.45;14.40;;;;;;;;;;4971263;28;20042;-65
2022/03/26 02:50:47;;;;;;;33.67;15.15;;;;;;;;;;4972242;28;20034;-66
2022/03/26 02:53:12;;;;;;;36.65;14.65;;;;;;;;;;4972695;28;20523;-65
2022/03/26 02:55:38;;;;;;;28.67;14.82;;;;;;;;;;4973053;28;20479;-66
2022/03/26 02:58:06;;;;;;;32.72;15.30;;;;;;;;;;4972643;28;20030;-66
2022/03/26 03:00:32;;;;;;;32.20;14.02;;;;;;;;;;4973670;28;20062;-66
2022/03/26 03:02:58;;;;;;;31.05;14.65;;;;;;;;;;4972990;28;20034;-65
2022/03/26 03:05:24;;;;;;;28.27;14.10;;;;;;;;;;4972871;28;20514;-65
2022/03/26 03:07:50;;;;;;;30.23;15.18;;;;;;;;;;4973173;28;20066;-65
2022/03/26 03:10:16;;;;;;;31.50;13.85;;;;;;;;;;4972341;28;20035;-64
2022/03/26 03:12:44;;;;;;;34.20;15.18;;;;;;;;;;4973064;28;20030;-66
2022/03/26 03:15:10;;;;;;;31.45;15.45;;;;;;;;;;4972889;28;20054;-66
2022/03/26 03:17:42;;;;;;;32.58;14.70;;;;;;;;;;4972728;28;20043;-66
2022/03/26 03:20:09;;;;;;;30.90;15.07;;;;;;;;;;4972543;28;20481;-65
2022/03/26 03:22:38;;;;;;;35.95;14.75;;;;;;;;;;4973166;28;20070;-66
2022/03/26 03:25:05;;;;;;;35.72;15.68;;;;;;;;;;4972586;28;20027;-66
2022/03/26 03:27:30;;;;;;;32.70;15.70;;;;;;;;;;4973009;28;20031;-65
2022/03/26 03:29:56;;;;;;;33.97;15.18;;;;;;;;;;4975061;28;20356;-65
2022/03/26 03:32:22;;;;;;;28.77;14.52;;;;;;;;;;4975897;28;20027;-65
2022/03/26 03:34:47;;;;;;;30.05;14.25;;;;;;;;;;4976772;28;20035;-65
2022/03/26 03:37:12;;;;;;;34.08;15.00;;;;;;;;;;4974681;28;20031;-65
2022/03/26 03:39:38;;;;;;;31.60;15.48;;;;;;;;;;4976596;28;20126;-65
2022/03/26 03:42:04;;;;;;;31.40;14.77;;;;;;;;;;4975604;28;20042;-65
2022/03/26 03:44:30;;;;;;;33.45;15.68;;;;;;;;;;4975435;28;20125;-65
2022/03/26 03:46:55;;;;;;;31.35;14.77;;;;;;;;;;4975605;28;20035;-65
2022/03/26 03:49:21;;;;;;;35.58;15.68;;;;;;;;;;4974099;28;20506;-64
2022/03/26 03:51:46;;;;;;;28.85;15.20;;;;;;;;;;4975922;28;20458;-64
2022/03/26 03:54:16;;;;;;;31.35;15.25;;;;;;;;;;4975357;28;20027;-64
2022/03/26 03:56:41;;;;;;;34.53;15.95;;;;;;;;;;4975701;28;20061;-64
2022/03/26 03:59:07;;;;;;;34.88;15.70;;;;;;;;;;4975439;28;20034;-64
2022/03/26 04:01:33;;;;;;;31.17;15.52;;;;;;;;;;4974994;28;20051;-64
2022/03/26 04:03:59;;;;;;;30.33;15.25;;;;;;;;;;4976188;28;20034;-64
2022/03/26 04:06:24;;;;;;;34.65;15.80;;;;;;;;;;4975024;28;20464;-64
2022/03/26 04:08:50;;;;;;;34.25;16.10;;;;;;;;;;4975874;28;20027;-64
2022/03/26 04:11:15;;;;;;;34.50;16.00;;;;;;;;;;4975130;28;20031;-64
2022/03/26 04:13:41;;;;;;;31.65;16.55;;;;;;;;;;4975916;28;20037;-64
2022/03/26 04:16:07;;;;;;;35.70;16.55;;;;;;;;;;4975211;28;20031;-65
2022/03/26 04:18:32;;;;;;;40.67;17.23;;;;;;;;;;4975753;28;20031;-65
2022/03/26 04:20:58;;;;;;;32.38;15.27;;;;;;;;;;4975848;28;20138;-65
2022/03/26 04:23:24;;;;;;;40.22;17.23;;;;;;;;;;4973528;28;20316;-65
2022/03/26 04:25:49;;;;;;;34.78;16.00;;;;;;;;;;4974340;28;20037;-65
2022/03/26 04:28:15;;;;;;;35.38;17.58;;;;;;;;;;4974859;28;20118;-65
2022/03/26 04:30:41;;;;;;;33.22;16.40;;;;;;;;;;4975244;28;20027;-65
2022/03/26 04:33:06;;;;;;;34.40;16.40;;;;;;;;;;4974712;28;20472;-65
2022/03/26 04:35:32;;;;;;;34.95;16.17;;;;;;;;;;4975173;28;20031;-65
2022/03/26 04:37:57;;;;;;;35.15;15.90;;;;;;;;;;4975416;28;20038;-65
2022/03/26 04:40:24;;;;;;;35.95;17.40;;;;;;;;;;4956867;28;20039;-65
2022/03/26 04:42:50;;;;;;;35.20;16.95;;;;;;;;;;4975420;28;20117;-65
2022/03/26 04:45:15;;;;;;;38.10;17.33;;;;;;;;;;4974740;28;20062;-65
2022/03/26 04:47:41;;;;;;;33.95;17.20;;;;;;;;;;4973881;28;20117;-65
2022/03/26 04:50:08;;;;;;;36.22;18.33;;;;;;;;;;4974444;28;20054;-65
2022/03/26 04:52:33;;;;;;;34.08;17.10;;;;;;;;;;4975191;28;20031;-64
2022/03/26 04:54:59;;;;;;;36.85;16.98;;;;;;;;;;4958024;28;20054;-66
2022/03/26 04:57:24;;;;;;;35.83;16.95;;;;;;;;;;4974515;28;20495;-66
2022/03/26 04:59:50;;;;;;;36.35;16.80;;;;;;;;;;4974858;28;20051;-66
2022/03/26 05:02:15;;;;;;;36.85;16.35;;;;;;;;;;4974412;28;20365;-65
2022/03/26 05:04:41;;;;;;;29.48;15.30;;;;;;;;;;4975131;28;20041;-65
2022/03/26 05:09:51;;;;;;;34.00;16.38;;;;;;;;;;4974945;28;20388;-64
2022/03/26 05:12:17;;;;;;;33.10;15.82;;;;;;;;;;4973165;28;20031;-64
2022/03/26 05:14:43;;;;;;;35.28;15.48;;;;;;;;;;4974875;28;20022;-64
2022/03/26 05:17:09;;;;;;;39.38;16.17;;;;;;;;;;4972980;28;20043;-65
2022/03/26 05:19:35;;;;;;;30.23;14.77;;;;;;;;;;4974645;28;20034;-65
2022/03/26 05:22:00;;;;;;;31.30;15.55;;;;;;;;;;4974499;28;20089;-65
2022/03/26 05:24:26;;;;;;;35.75;16.40;;;;;;;;;;4973903;28;20078;-65
2022/03/26 05:26:51;;;;;;;36.65;16.55;;;;;;;;;;4974362;28;20440;-65
2022/03/26 05:29:17;;;;;;;35.95;17.25;;;;;;;;;;4956667;28;20122;-65
2022/03/26 05:31:42;;;;;;;34.30;17.05;;;;;;;;;;4974378;28;20395;-65
2022/03/26 05:34:08;;;;;;;37.75;17.65;;;;;;;;;;4974318;28;20057;-65
2022/03/26 05:36:33;;;;;;;36.33;18.65;;;;;;;;;;4974380;28;20452;-65
2022/03/26 05:38:58;;;;;;;40.13;17.70;;;;;;;;;;4973982;28;20049;-65
2022/03/26 05:41:24;;;;;;;39.60;17.90;;;;;;;;;;4956393;28;20054;-65
2022/03/26 05:43:50;;;;;;;30.13;15.98;;;;;;;;;;4974685;28;20497;-65
2022/03/26 05:46:16;;;;;;;35.85;17.05;;;;;;;;;;4973575;28;20038;-65
2022/03/26 05:48:41;;;;;;;32.30;16.55;;;;;;;;;;4956748;28;20399;-65
2022/03/26 05:51:07;;;;;;;39.03;17.73;;;;;;;;;;4973916;28;20098;-65
2022/03/26 05:53:32;;;;;;;40.08;17.40;;;;;;;;;;4972780;28;20039;-66
2022/03/26 05:55:58;;;;;;;37.55;17.40;;;;;;;;;;4974381;28;20138;-66
2022/03/26 05:58:23;;;;;;;36.03;16.90;;;;;;;;;;4973235;28;20031;-66
2022/03/26 06:00:49;;;;;;;34.65;18.02;;;;;;;;;;4974143;28;20037;-66
2022/03/26 06:03:17;;;;;;;38.70;18.85;;;;;;;;;;4973545;28;20030;-66
2022/03/26 06:05:42;;;;;;;37.35;18.05;;;;;;;;;;4972843;28;20113;-65
2022/03/26 06:08:08;;;;;;;40.88;18.23;;;;;;;;;;4973837;28;20564;-65
2022/03/26 06:10:35;;;;;;;37.05;18.45;;;;;;;;;;4973357;28;20451;-66
2022/03/26 06:13:00;;;;;;;38.97;18.13;;;;;;;;;;4974040;28;20535;-65
2022/03/26 06:15:26;;;;;;;39.42;18.98;;;;;;;;;;4972114;28;20027;-67
2022/03/26 06:17:51;;;;;;;39.22;18.33;;;;;;;;;;4974007;28;20030;-66
2022/03/26 06:20:16;;;;;;;38.30;17.85;;;;;;;;;;4973845;28;20073;-66
2022/03/26 06:22:48;;;;;;;38.92;18.08;;;;;;;;;;4974296;28;20031;-66
2022/03/26 06:25:13;;;;;;;;;;;;;;;;;;4975869;28;20155;-66
2022/03/26 06:27:38;;;;;;;40.25;17.48;;;;;;;;;;4975643;28;20372;-65
2022/03/26 06:30:04;;;;;;;35.28;17.85;;;;;;;;;;4974123;28;20026;-65
2022/03/26 06:32:30;;;;;;;37.17;18.48;;;;;;;;;;4973136;28;20066;-65
2022/03/26 06:34:55;;;;;;;40.05;18.40;;;;;;;;;;4973855;28;20461;-65
2022/03/26 06:37:21;;;;;;;39.65;18.23;;;;;;;;;;4972795;28;20424;-66
2022/03/26 06:39:46;;;;;;;36.28;17.52;;;;;;;;;;4956412;28;20392;-65
2022/03/26 06:42:12;;;;;;;38.22;18.45;;;;;;;;;;4974106;28;20056;-66
2022/03/26 06:44:38;;;;;;;39.13;17.70;;;;;;;;;;4956498;28;20030;-66
2022/03/26 06:47:04;;;;;;;39.55;17.67;;;;;;;;;;4973473;28;20023;-66
2022/03/26 06:49:31;;;;;;;43.90;18.65;;;;;;;;;;4955505;28;20146;-66
2022/03/26 06:51:57;;;;;;;40.15;19.38;;;;;;;;;;4973492;28;20109;-65
2022/03/26 06:54:23;;;;;;;39.85;17.98;;;;;;;;;;4971685;28;20027;-66
2022/03/26 06:56:48;;;;;;;37.88;19.50;;;;;;;;;;4973247;28;20041;-66
2022/03/26 06:59:13;;;;;;;36.72;17.75;;;;;;;;;;4971582;28;20082;-68
2022/03/26 07:01:39;;;;;;;37.60;18.15;;;;;;;;;;4973343;28;20377;-66
2022/03/26 07:04:04;;;;;;;41.28;18.70;;;;;;;;;;4975230;28;20065;-66
2022/03/26 07:06:30;;;;;;;40.97;19.17;;;;;;;;;;4976217;28;20058;-66
2022/03/26 07:08:55;;;;;;;40.17;17.70;;;;;;;;;;4975824;28;20126;-67
2022/03/26 07:11:21;;;;;;;38.17;18.75;;;;;;;;;;4976417;28;20033;-66
2022/03/26 07:13:47;;;;;;;39.85;18.98;;;;;;;;;;4977144;28;20030;-65
2022/03/26 07:16:13;;;;;;;33.60;17.55;;;;;;;;;;4975894;28;20031;-66
2022/03/26 07:18:38;;;;;;;38.55;17.80;;;;;;;;;;4976199;28;20038;-66
2022/03/26 07:21:04;;;;;;;42.72;18.95;;;;;;;;;;4976323;28;20039;-66
2022/03/26 07:23:29;;;;;;;38.53;18.27;;;;;;;;;;4959028;28;20035;-66
2022/03/26 07:25:55;;;;;;;35.67;18.30;;;;;;;;;;4976707;28;20109;-65
2022/03/26 07:28:21;;;;;;;38.95;18.50;;;;;;;;;;4975987;28;20433;-66
2022/03/26 07:30:47;;;;;;;41.55;18.23;;;;;;;;;;4959594;28;20353;-65
2022/03/26 07:33:12;;;;;;;37.90;19.40;;;;;;;;;;4976830;28;20031;-66
2022/03/26 07:35:38;;;;;;;39.30;18.50;;;;;;;;;;4975871;28;20058;-66
2022/03/26 07:38:03;;;;;;;38.45;18.33;;;;;;;;;;4976394;28;20077;-65
2022/03/26 07:40:29;;;;;;;36.92;17.80;;;;;;;;;;4975897;28;20081;-66
2022/03/26 07:42:55;;;;;;;40.20;18.13;;;;;;;;;;4976557;28;20066;-64
2022/03/26 07:45:20;;;;;;;32.60;16.63;;;;;;;;;;4976051;28;20030;-65
2022/03/26 07:47:46;;;;;;;41.47;18.95;;;;;;;;;;4975083;28;20065;-65
2022/03/26 07:50:11;;;;;;;40.50;17.58;;;;;;;;;;4976615;28;20043;-65
2022/03/26 07:52:38;;;;;;;35.45;17.80;;;;;;;;;;4975452;28;20566;-65
2022/03/26 07:55:04;;;;;;;39.35;17.40;;;;;;;;;;4975931;28;20030;-65
2022/03/26 07:57:30;;;;;;;37.75;17.75;;;;;;;;;;4975223;28;20039;-65
2022/03/26 07:59:55;;;;;;;36.90;17.30;;;;;;;;;;4975832;28;20042;-65
2022/03/26 08:02:21;;;;;;;36.47;17.05;;;;;;;;;;4975314;28;20104;-66
2022/03/26 08:04:46;;;;;;;36.50;17.65;;;;;;;;;;4975835;28;20027;-65
2022/03/26 08:07:12;;;;;;;33.90;17.38;;;;;;;;;;4976075;28;20511;-65
2022/03/26 08:09:38;;;;;;;36.95;16.75;;;;;;;;;;4975316;28;20363;-64
2022/03/26 08:12:03;;;;;;;32.88;16.38;;;;;;;;;;4974752;28;20034;-66
2022/03/26 08:14:30;;;;;;;35.30;17.52;;;;;;;;;;4974704;28;20397;-65
2022/03/26 08:16:56;;;;;;;33.25;16.45;;;;;;;;;;4958117;28;20035;-64
2022/03/26 08:19:22;;;;;;;34.15;16.65;;;;;;;;;;4973803;28;20078;-65
2022/03/26 08:21:47;;;;;;;37.65;17.63;;;;;;;;;;4976173;28;20035;-65
2022/03/26 08:24:13;;;;;;;34.88;16.80;;;;;;;;;;4974459;28;20423;-64
2022/03/26 08:26:39;;;;;;;32.83;15.98;;;;;;;;;;4975149;28;20759;-65
2022/03/26 08:29:05;;;;;;;33.03;16.55;;;;;;;;;;4974433;28;20066;-65
2022/03/26 08:31:31;;;;;;;32.38;17.25;;;;;;;;;;4975048;28;20062;-65
2022/03/26 08:33:57;;;;;;;34.88;17.45;;;;;;;;;;4975677;28;20063;-64
2022/03/26 08:36:24;;;;;;;31.58;15.80;;;;;;;;;;4975006;28;20058;-65
2022/03/26 08:38:49;;;;;;;33.80;17.00;;;;;;;;;;4975500;28;20035;-65
2022/03/26 08:41:17;;;;;;;32.47;16.30;;;;;;;;;;4975213;28;20033;-65
2022/03/26 08:43:43;;;;;;;29.25;16.05;;;;;;;;;;4974870;28;20134;-64
2022/03/26 08:46:09;;;;;;;32.92;16.33;;;;;;;;;;4974051;28;20030;-65
2022/03/26 08:48:35;;;;;;;36.38;16.92;;;;;;;;;;4974127;28;20030;-65
2022/03/26 08:51:00;;;;;;;39.53;17.02;;;;;;;;;;4975440;28;20153;-65
2022/03/26 08:53:26;;;;;;;33.97;16.95;;;;;;;;;;4973575;28;20027;-65
2022/03/26 08:55:52;;;;;;;34.15;15.85;;;;;;;;;;4973969;28;20058;-64
2022/03/26 08:58:18;;;;;;;33.70;16.73;;;;;;;;;;4975045;28;20425;-64
2022/03/26 09:00:48;;;;;;;30.65;16.55;;;;;;;;;;4974188;28;20031;-64
2022/03/26 09:03:17;;;;;;;32.27;16.23;;;;;;;;;;4975143;28;20027;-64
2022/03/26 09:05:42;;;;;;;34.70;15.52;;;;;;;;;;4974486;28;20070;-64
2022/03/26 09:08:08;;;;;;;34.17;15.85;;;;;;;;;;4974565;28;20030;-65
2022/03/26 09:10:35;;;;;;;32.70;15.82;;;;;;;;;;4974061;28;20069;-65
2022/03/26 09:13:00;;;;;;;34.65;15.90;;;;;;;;;;4974833;28;20475;-65
2022/03/26 09:15:26;;;;;;;35.83;16.20;;;;;;;;;;4973765;28;20077;-65
2022/03/26 09:17:51;;;;;;;30.40;15.95;;;;;;;;;;4973473;28;20138;-65
2022/03/26 09:20:17;;;;;;;32.42;13.98;;;;;;;;;;4974783;28;20031;-65
2022/03/26 09:22:42;;;;;;;28.90;13.75;;;;;;;;;;4973843;28;20074;-64
2022/03/26 09:25:08;;;;;;;27.38;14.23;;;;;;;;;;4973407;28;20118;-64
2022/03/26 09:27:34;;;;;;;29.13;13.95;;;;;;;;;;4972426;28;20093;-64
2022/03/26 09:30:00;;;;;;;26.73;14.07;;;;;;;;;;4974513;28;20035;-64
2022/03/26 09:32:25;;;;;;;27.58;13.35;;;;;;;;;;4974252;28;20045;-66
2022/03/26 09:34:51;;;;;;;29.85;13.63;;;;;;;;;;4957199;28;20027;-64
2022/03/26 09:37:17;;;;;;;26.63;13.60;;;;;;;;;;4974508;28;20038;-64
2022/03/26 09:39:43;;;;;;;29.45;13.45;;;;;;;;;;4973607;28;20275;-64
2022/03/26 09:42:09;;;;;;;27.15;13.13;;;;;;;;;;4974348;28;20027;-64
2022/03/26 09:44:35;;;;;;;26.90;12.38;;;;;;;;;;4973456;28;20027;-64
2022/03/26 09:47:04;;;;;;;29.38;13.70;;;;;;;;;;4973976;28;20109;-66
2022/03/26 09:49:31;;;;;;;28.38;13.93;;;;;;;;;;4955949;28;20372;-64
2022/03/26 09:51:57;;;;;;;32.03;12.82;;;;;;;;;;4956908;28;20089;-65
2022/03/26 09:54:22;;;;;;;29.80;12.68;;;;;;;;;;4974220;28;20034;-65
2022/03/26 09:56:48;;;;;;;30.80;14.00;;;;;;;;;;4973798;28;20357;-64
2022/03/26 09:59:18;;;;;;;21.10;11.93;;;;;;;;;;4972699;28;20164;-64
2022/03/26 10:01:43;;;;;;;23.60;12.10;;;;;;;;;;4973409;28;20067;-65
2022/03/26 10:04:14;;;;;;;21.63;11.90;;;;;;;;;;4973761;28;20535;-65
2022/03/26 10:06:54;;;;;;;29.98;12.98;;;;;;;;;;4973156;28;20034;-65
2022/03/26 10:09:32;;;;;;;26.03;13.13;;;;;;;;;;4974178;28;20038;-65
2022/03/26 10:11:59;;;;;;;29.08;12.57;;;;;;;;;;4973569;28;20050;-65
2022/03/26 10:14:35;;;;;;;24.02;12.05;;;;;;;;;;4973850;28;20038;-65
2022/03/26 10:17:08;;;;;;;24.20;12.55;;;;;;;;;;4972527;28;20125;-65
2022/03/26 10:19:35;;;;;;;24.23;12.73;;;;;;;;;;4973111;28;20074;-65
2022/03/26 10:22:01;;;;;;;25.60;12.38;;;;;;;;;;4973695;28;20492;-65
2022/03/26 10:24:26;;;;;;;21.85;10.77;;;;;;;;;;4971867;28;20121;-67
2022/03/26 10:26:51;;;;;;;16.95;10.20;;;;;;;;;;4972141;28;20054;-65
2022/03/26 10:29:17;;;;;;;18.85;10.35;;;;;;;;;;4973166;28;20041;-65
2022/03/26 10:34:26;;;;;;;25.40;11.55;;;;;;;;;;4973001;28;20452;-67
2022/03/26 10:37:00;;;;;;;20.92;11.20;;;;;;;;;;4956070;28;20034;-65
2022/03/26 10:39:27;;;;;;;18.92;11.23;;;;;;;;;;4972879;28;20053;-65
2022/03/26 10:41:54;;;;;;;26.05;11.85;;;;;;;;;;4973221;28;20041;-65
2022/03/26 10:44:28;;;;;;;22.13;11.95;;;;;;;;;;4973490;28;20031;-65
2022/03/26 10:46:59;;;;;;;22.63;12.13;;;;;;;;;;4973183;28;20053;-65
2022/03/26 10:49:31;;;;;;;;;;;;;;;;;;4973107;28;20185;-66
2022/03/26 10:52:05;;;;;;;20.52;9.75;;;;;;;;;;4972534;28;19914;-66
2022/03/26 10:54:32;;;;;;;20.05;9.73;;;;;;;;;;4972567;28;20106;-66
2022/03/26 10:56:59;;;;;;;18.05;10.63;;;;;;;;;;4972314;28;20069;-68
2022/03/26 10:59:26;;;;;;;21.15;10.30;;;;;;;;;;4973090;28;20027;-66
2022/03/26 11:01:52;;;;;;;17.88;10.55;;;;;;;;;;4972710;28;20031;-66
2022/03/26 11:04:18;;;;;;;18.83;10.18;;;;;;;;;;4973309;28;20050;-66
2022/03/26 11:06:44;;;;;;;21.10;10.57;;;;;;;;;;4972591;28;20034;-66
2022/03/26 11:09:11;;;;;;;17.70;10.20;;;;;;;;;;4973378;28;20604;-67
2022/03/26 11:11:37;;;;;;;16.23;9.32;;;;;;;;;;4972943;28;20042;-66
2022/03/26 11:14:09;;;;;;;17.38;9.98;;;;;;;;;;4973558;28;20107;-67
2022/03/26 11:16:40;;;;;;;16.88;10.10;;;;;;;;;;4972786;28;20027;-67
2022/03/26 11:19:09;;;;;;;17.88;10.38;;;;;;;;;;4973241;28;20035;-66
2022/03/26 11:21:58;;;;;;;23.23;10.68;;;;;;;;;;4972648;28;20049;-67
2022/03/26 11:24:45;;;;;;;18.20;9.30;;;;;;;;;;4973123;28;20049;-66
2022/03/26 11:27:34;;;;;;;15.57;8.82;;;;;;;;;;4973094;28;20034;-65
2022/03/26 11:30:52;;;;;;;16.15;9.05;;;;;;;;;;4972916;28;20062;-65
2022/03/26 11:33:19;;;;;;;14.30;8.75;;;;;;;;;;4933514;28;20484;-65
2022/03/26 11:35:56;;;;;;;14.07;8.80;;;;;;;;;;4954962;28;20026;-65
2022/03/26 11:38:29;;;;;;;14.48;8.80;;;;;;;;;;4972951;28;20476;-66
2022/03/26 11:41:03;;;;;;;12.80;8.55;;;;;;;;;;4971694;28;20045;-65
2022/03/26 11:43:44;;;;;;;14.52;8.63;;;;;;;;;;4972234;28;20392;-66
2022/03/26 11:51:51;;;;;;;13.05;8.15;;;;;;;;;;4975783;28;20480;-66
2022/03/26 11:54:18;;;;;;;14.18;9.20;;;;;;;;;;4976190;28;20033;-66
2022/03/26 11:56:46;;;;;;;12.50;7.45;;;;;;;;;;4975544;28;20038;-66
2022/03/26 11:59:19;;;;;;;11.20;7.05;;;;;;;;;;4958786;28;20030;-65
2022/03/26 12:01:47;;;;;;;12.93;7.30;;;;;;;;;;4975575;28;20369;-66
2022/03/26 12:04:18;;;;;;;13.27;6.57;;;;;;;;;;4976494;28;20468;-65
2022/03/26 12:06:43;;;;;;;;;;;;;;;;;;4974574;28;20376;-66
2022/03/26 12:09:11;;;;;;;9.77;6.25;;;;;;;;;;4975595;28;19960;-65
2022/03/26 12:11:37;;;;;;;10.10;6.47;;;;;;;;;;4975308;28;20476;-64
2022/03/26 12:14:05;;;;;;;10.82;6.25;;;;;;;;;;4976028;28;20040;-64
2022/03/26 12:16:49;;;;;;;10.75;5.78;;;;;;;;;;4975763;28;20396;-64
2022/03/26 12:19:45;;;;;;;8.82;5.63;;;;;;;;;;4975503;28;20031;-65
2022/03/26 12:22:33;;;;;;;10.15;5.93;;;;;;;;;;4976189;28;20045;-65
2022/03/26 12:25:00;;;;;;;10.02;6.20;;;;;;;;;;4974751;28;20074;-65
2022/03/26 12:27:26;;;;;;;10.68;5.90;;;;;;;;;;4975642;28;20071;-66
2022/03/26 12:29:58;;;;;;;9.48;5.95;;;;;;;;;;4974534;28;20416;-65
2022/03/26 12:32:33;;;;;;;9.68;6.35;;;;;;;;;;4975586;28;20089;-64
2022/03/26 12:35:05;;;;;;;10.20;6.40;;;;;;;;;;4975876;28;20037;-65
2022/03/26 12:37:32;;;;;;;11.63;6.60;;;;;;;;;;4975388;28;20403;-66
2022/03/26 12:39:57;;;;;;;11.50;7.18;;;;;;;;;;4974799;28;20054;-67
2022/03/26 12:42:25;;;;;;;10.02;7.00;;;;;;;;;;4975528;28;20065;-64
2022/03/26 12:44:51;;;;;;;10.70;6.88;;;;;;;;;;4957549;28;20101;-65
2022/03/26 12:47:22;;;;;;;9.30;6.00;;;;;;;;;;4975820;28;20038;-65
2022/03/26 12:49:48;;;;;;;;;;;;;;;;;;4975083;28;20051;-67
2022/03/26 12:52:18;;;;;;;11.70;7.03;;;;;;;;;;4975391;28;19921;-64
2022/03/26 12:54:44;;;;;;;9.73;5.93;;;;;;;;;;4974731;28;20066;-65
2022/03/26 12:57:09;;;;;;;9.43;5.85;;;;;;;;;;4975039;28;20058;-64
2022/03/26 12:59:35;;;;;;;10.07;5.50;;;;;;;;;;4974504;28;20464;-68
2022/03/26 13:02:01;;;;;;;10.18;6.03;;;;;;;;;;4974510;28;20037;-65
2022/03/26 13:04:27;;;;;;;8.77;6.68;;;;;;;;;;4975244;28;20532;-65
2022/03/26 13:06:57;;;;;;;12.13;6.68;;;;;;;;;;4974177;28;20030;-65
2022/03/26 13:09:30;;;;;;;10.82;6.57;;;;;;;;;;4974718;28;20037;-65
2022/03/26 13:11:56;;;;;;;11.27;6.75;;;;;;;;;;4974441;28;20752;-65
2022/03/26 13:14:22;;;;;;;9.20;6.82;;;;;;;;;;4975084;28;20027;-66
2022/03/26 13:16:52;;;;;;;9.13;6.43;;;;;;;;;;4956916;28;20042;-64
2022/03/26 13:19:18;;;;;;;11.10;6.82;;;;;;;;;;4973648;28;20165;-67
2022/03/26 13:21:50;;;;;;;11.10;6.88;;;;;;;;;;4974241;28;20109;-67
2022/03/26 13:24:18;;;;;;;11.65;6.70;;;;;;;;;;4975140;28;20022;-67
2022/03/26 13:26:46;;;;;;;16.33;6.53;;;;;;;;;;4973751;28;20031;-66
2022/03/26 13:29:19;;;;;;;10.75;6.30;;;;;;;;;;4974458;28;20039;-66
2022/03/26 13:31:58;;;;;;;13.02;6.97;;;;;;;;;;4974069;28;20045;-66
2022/03/26 13:34:25;;;;;;;10.88;7.32;;;;;;;;;;4974519;28;20031;-66
2022/03/26 13:36:52;;;;;;;10.48;7.13;;;;;;;;;;4973905;28;20106;-66
2022/03/26 13:39:21;;;;;;;10.40;6.90;;;;;;;;;;4974405;28;20114;-64
2022/03/26 13:41:48;;;;;;;10.65;7.05;;;;;;;;;;4956445;28;20389;-65
2022/03/26 13:44:14;;;;;;;10.70;6.85;;;;;;;;;;4974021;28;20031;-65
2022/03/26 13:46:40;;;;;;;12.52;7.90;;;;;;;;;;4973597;28;20041;-65
2022/03/26 13:49:05;;;;;;;11.48;7.22;;;;;;;;;;4973906;28;20069;-65
2022/03/26 13:51:33;;;;;;;9.82;7.43;;;;;;;;;;4973943;28;20031;-65
2022/03/26 13:54:08;;;;;;;11.57;7.70;;;;;;;;;;4973518;28;20472;-65
2022/03/26 13:56:38;;;;;;;12.48;8.27;;;;;;;;;;4974200;28;20031;-65
2022/03/26 13:59:06;;;;;;;16.45;9.27;;;;;;;;;;4973831;28;20034;-65
2022/03/26 14:01:38;;;;;;;13.98;9.40;;;;;;;;;;4973917;28;20043;-65
2022/03/26 14:04:04;;;;;;;17.15;9.90;;;;;;;;;;4974012;28;20030;-65
2022/03/26 14:06:30;;;;;;;14.85;9.63;;;;;;;;;;4974033;28;20101;-66
2022/03/26 14:08:57;;;;;;;15.23;9.88;;;;;;;;;;4955949;28;20117;-66
2022/03/26 14:11:23;;;;;;;19.73;10.45;;;;;;;;;;4973931;28;20038;-66
2022/03/26 14:13:49;;;;;;;20.58;10.63;;;;;;;;;;4972292;28;20031;-65
2022/03/26 14:16:16;;;;;;;16.73;10.07;;;;;;;;;;4973828;28;20093;-66
2022/03/26 14:18:42;;;;;;;13.95;9.73;;;;;;;;;;4972826;28;20070;-66
2022/03/26 14:21:08;;;;;;;14.20;9.60;;;;;;;;;;4973675;28;20114;-65
2022/03/26 14:23:33;;;;;;;17.25;9.98;;;;;;;;;;4973845;28;20031;-66
2022/03/26 14:25:59;;;;;;;16.13;10.05;;;;;;;;;;4973177;28;20452;-66
2022/03/26 14:28:24;;;;;;;17.27;10.07;;;;;;;;;;4972549;28;20027;-65
2022/03/26 14:30:50;;;;;;;15.15;9.88;;;;;;;;;;4972601;28;20105;-66
2022/03/26 14:33:16;;;;;;;16.45;10.10;;;;;;;;;;4956119;28;20030;-65